sensor_id;sensor_type;location;lat;lon;timestamp;temperature;humidity
573;DHT22;271;51.114;13.780;2023-05-10T00:00:20;13.30;1.00
573;DHT22;271;51.114;13.780;2023-05-10T00:03:08;13.20;1.00
573;DHT22;271;51.114;13.780;2023-05-10T00:05:56;13.20;1.00
573;DHT22;271;51.114;13.780;2023-05-10T00:08:44;13.20;1.00
573;DHT22;271;51.114;13.780;2023-05-10T00:11:32;13.10;1.00
573;DHT22;271;51.114;13.780;2023-05-10T00:14:20;13.10;1.00
573;DHT22;271;51.114;13.780;2023-05-10T00:17:09;13.00;1.00
573;DHT22;271;51.114;13.780;2023-05-10T00:19:58;13.10;1.00
573;DHT22;271;51.114;13.780;2023-05-10T00:22:46;13.00;1.00
573;DHT22;271;51.114;13.780;2023-05-10T00:25:34;13.00;1.00
573;DHT22;271;51.114;13.780;2023-05-10T00:28:22;13.00;1.00
573;DHT22;271;51.114;13.780;2023-05-10T00:31:11;13.00;1.00
573;DHT22;271;51.114;13.780;2023-05-10T00:34:00;13.00;1.00
573;DHT22;271;51.114;13.780;2023-05-10T00:36:49;12.90;1.00
573;DHT22;271;51.114;13.780;2023-05-10T00:39:37;12.90;1.00
573;DHT22;271;51.114;13.780;2023-05-10T00:42:25;12.80;1.00
573;DHT22;271;51.114;13.780;2023-05-10T00:45:13;12.80;1.00
573;DHT22;271;51.114;13.780;2023-05-10T00:48:02;12.70;1.00
573;DHT22;271;51.114;13.780;2023-05-10T00:50:52;12.70;1.00
573;DHT22;271;51.114;13.780;2023-05-10T00:53:40;12.70;1.00
573;DHT22;271;51.114;13.780;2023-05-10T00:56:29;12.70;1.00
573;DHT22;271;51.114;13.780;2023-05-10T00:59:17;12.70;1.00
573;DHT22;271;51.114;13.780;2023-05-10T01:02:05;12.60;1.00
573;DHT22;271;51.114;13.780;2023-05-10T01:04:54;12.60;1.00
573;DHT22;271;51.114;13.780;2023-05-10T01:07:43;12.60;1.00
573;DHT22;271;51.114;13.780;2023-05-10T01:10:31;12.50;1.00
573;DHT22;271;51.114;13.780;2023-05-10T01:13:30;12.40;1.00
573;DHT22;271;51.114;13.780;2023-05-10T01:16:18;12.40;1.00
573;DHT22;271;51.114;13.780;2023-05-10T01:19:11;12.40;1.00
573;DHT22;271;51.114;13.780;2023-05-10T01:22:06;12.40;1.00
573;DHT22;271;51.114;13.780;2023-05-10T01:25:24;12.40;1.00
573;DHT22;271;51.114;13.780;2023-05-10T01:28:36;12.30;1.00
573;DHT22;271;51.114;13.780;2023-05-10T01:34:54;12.20;1.00
573;DHT22;271;51.114;13.780;2023-05-10T01:37:49;12.20;1.00
573;DHT22;271;51.114;13.780;2023-05-10T01:40:45;12.10;1.00
573;DHT22;271;51.114;13.780;2023-05-10T01:43:44;12.10;1.00
573;DHT22;271;51.114;13.780;2023-05-10T01:46:37;12.10;1.00
573;DHT22;271;51.114;13.780;2023-05-10T01:49:29;12.00;1.00
573;DHT22;271;51.114;13.780;2023-05-10T01:52:25;12.00;1.00
573;DHT22;271;51.114;13.780;2023-05-10T01:55:25;12.00;1.00
573;DHT22;271;51.114;13.780;2023-05-10T01:58:15;12.10;1.00
573;DHT22;271;51.114;13.780;2023-05-10T02:01:06;11.90;1.00
573;DHT22;271;51.114;13.780;2023-05-10T02:03:56;11.90;1.00
573;DHT22;271;51.114;13.780;2023-05-10T02:06:45;11.80;1.00
573;DHT22;271;51.114;13.780;2023-05-10T02:09:36;11.90;1.00
573;DHT22;271;51.114;13.780;2023-05-10T02:12:25;11.80;1.00
573;DHT22;271;51.114;13.780;2023-05-10T02:15:20;11.80;1.00
573;DHT22;271;51.114;13.780;2023-05-10T02:18:09;11.90;1.00
573;DHT22;271;51.114;13.780;2023-05-10T02:20:59;11.80;1.00
573;DHT22;271;51.114;13.780;2023-05-10T02:23:48;11.70;1.00
573;DHT22;271;51.114;13.780;2023-05-10T02:26:39;11.80;1.00
573;DHT22;271;51.114;13.780;2023-05-10T02:29:28;11.70;1.00
573;DHT22;271;51.114;13.780;2023-05-10T02:32:16;11.80;1.00
573;DHT22;271;51.114;13.780;2023-05-10T02:35:06;11.70;1.00
573;DHT22;271;51.114;13.780;2023-05-10T02:37:54;11.70;1.00
573;DHT22;271;51.114;13.780;2023-05-10T02:40:44;11.70;1.00
573;DHT22;271;51.114;13.780;2023-05-10T02:43:35;11.60;1.00
573;DHT22;271;51.114;13.780;2023-05-10T02:46:24;11.60;1.00
573;DHT22;271;51.114;13.780;2023-05-10T02:49:12;11.60;1.00
573;DHT22;271;51.114;13.780;2023-05-10T02:52:01;11.60;1.00
573;DHT22;271;51.114;13.780;2023-05-10T02:54:55;11.50;1.00
573;DHT22;271;51.114;13.780;2023-05-10T02:57:59;11.50;1.00
573;DHT22;271;51.114;13.780;2023-05-10T03:00:48;11.50;1.00
573;DHT22;271;51.114;13.780;2023-05-10T03:03:36;11.50;1.00
573;DHT22;271;51.114;13.780;2023-05-10T03:06:24;11.50;1.00
573;DHT22;271;51.114;13.780;2023-05-10T03:09:13;11.40;1.00
573;DHT22;271;51.114;13.780;2023-05-10T03:12:07;11.50;1.00
573;DHT22;271;51.114;13.780;2023-05-10T03:15:03;11.40;1.00
573;DHT22;271;51.114;13.780;2023-05-10T03:18:00;11.40;1.00
573;DHT22;271;51.114;13.780;2023-05-10T03:20:51;11.40;1.00
573;DHT22;271;51.114;13.780;2023-05-10T03:23:46;11.40;1.00
573;DHT22;271;51.114;13.780;2023-05-10T03:26:35;11.40;1.00
573;DHT22;271;51.114;13.780;2023-05-10T03:29:25;11.40;1.00
573;DHT22;271;51.114;13.780;2023-05-10T03:32:14;11.30;1.00
573;DHT22;271;51.114;13.780;2023-05-10T03:35:06;11.40;1.00
573;DHT22;271;51.114;13.780;2023-05-10T03:37:54;11.30;1.00
573;DHT22;271;51.114;13.780;2023-05-10T03:40:42;11.30;1.00
573;DHT22;271;51.114;13.780;2023-05-10T03:43:29;11.30;1.00
573;DHT22;271;51.114;13.780;2023-05-10T03:46:17;11.40;1.00
573;DHT22;271;51.114;13.780;2023-05-10T03:49:05;11.40;1.00
573;DHT22;271;51.114;13.780;2023-05-10T03:51:54;11.40;1.00
573;DHT22;271;51.114;13.780;2023-05-10T03:54:42;11.40;1.00
573;DHT22;271;51.114;13.780;2023-05-10T03:57:29;11.40;1.00
573;DHT22;271;51.114;13.780;2023-05-10T04:00:17;11.40;1.00
573;DHT22;271;51.114;13.780;2023-05-10T04:03:05;11.50;1.00
573;DHT22;271;51.114;13.780;2023-05-10T04:05:58;11.50;1.00
573;DHT22;271;51.114;13.780;2023-05-10T04:08:48;11.60;1.00
573;DHT22;271;51.114;13.780;2023-05-10T04:11:35;11.70;1.00
573;DHT22;271;51.114;13.780;2023-05-10T04:14:23;11.70;1.00
573;DHT22;271;51.114;13.780;2023-05-10T04:17:11;11.80;1.00
573;DHT22;271;51.114;13.780;2023-05-10T04:19:59;11.80;1.00
573;DHT22;271;51.114;13.780;2023-05-10T04:22:46;11.70;1.00
573;DHT22;271;51.114;13.780;2023-05-10T04:25:35;11.80;1.00
573;DHT22;271;51.114;13.780;2023-05-10T04:28:23;11.90;1.00
573;DHT22;271;51.114;13.780;2023-05-10T04:31:11;11.90;1.00
573;DHT22;271;51.114;13.780;2023-05-10T04:33:58;12.00;1.00
573;DHT22;271;51.114;13.780;2023-05-10T04:36:46;12.10;1.00
573;DHT22;271;51.114;13.780;2023-05-10T04:39:34;12.30;1.00
573;DHT22;271;51.114;13.780;2023-05-10T04:42:23;12.30;1.00
573;DHT22;271;51.114;13.780;2023-05-10T04:45:11;12.50;1.00
573;DHT22;271;51.114;13.780;2023-05-10T04:48:00;12.60;1.00
573;DHT22;271;51.114;13.780;2023-05-10T04:50:48;12.80;1.00
573;DHT22;271;51.114;13.780;2023-05-10T04:53:36;12.80;1.00
573;DHT22;271;51.114;13.780;2023-05-10T04:56:23;12.90;1.00
573;DHT22;271;51.114;13.780;2023-05-10T04:59:12;13.00;1.00
573;DHT22;271;51.114;13.780;2023-05-10T05:02:00;13.10;1.00
573;DHT22;271;51.114;13.780;2023-05-10T05:04:48;13.20;1.00
573;DHT22;271;51.114;13.780;2023-05-10T05:07:36;13.60;1.00
573;DHT22;271;51.114;13.780;2023-05-10T05:10:23;13.70;1.00
573;DHT22;271;51.114;13.780;2023-05-10T05:13:12;14.00;1.00
573;DHT22;271;51.114;13.780;2023-05-10T05:16:03;14.30;1.00
573;DHT22;271;51.114;13.780;2023-05-10T05:18:51;14.40;1.00
573;DHT22;271;51.114;13.780;2023-05-10T05:21:39;14.90;1.00
573;DHT22;271;51.114;13.780;2023-05-10T05:24:27;15.50;1.00
573;DHT22;271;51.114;13.780;2023-05-10T05:27:15;16.00;1.00
573;DHT22;271;51.114;13.780;2023-05-10T05:30:03;16.30;1.00
573;DHT22;271;51.114;13.780;2023-05-10T05:32:53;16.70;1.00
573;DHT22;271;51.114;13.780;2023-05-10T05:35:40;17.20;1.00
573;DHT22;271;51.114;13.780;2023-05-10T05:38:29;17.70;1.00
573;DHT22;271;51.114;13.780;2023-05-10T05:41:17;18.50;1.00
573;DHT22;271;51.114;13.780;2023-05-10T05:44:04;18.70;1.00
573;DHT22;271;51.114;13.780;2023-05-10T05:46:52;19.40;1.00
573;DHT22;271;51.114;13.780;2023-05-10T05:49:41;19.80;1.00
573;DHT22;271;51.114;13.780;2023-05-10T05:52:31;20.40;1.00
573;DHT22;271;51.114;13.780;2023-05-10T05:55:19;20.30;1.00
573;DHT22;271;51.114;13.780;2023-05-10T05:58:07;19.70;1.00
573;DHT22;271;51.114;13.780;2023-05-10T06:00:55;19.90;1.00
573;DHT22;271;51.114;13.780;2023-05-10T06:03:43;20.50;1.00
573;DHT22;271;51.114;13.780;2023-05-10T06:06:32;21.10;1.00
573;DHT22;271;51.114;13.780;2023-05-10T06:09:20;20.70;1.00
573;DHT22;271;51.114;13.780;2023-05-10T06:12:09;21.10;1.00
573;DHT22;271;51.114;13.780;2023-05-10T06:14:58;20.90;1.00
573;DHT22;271;51.114;13.780;2023-05-10T06:17:45;20.80;1.00
573;DHT22;271;51.114;13.780;2023-05-10T06:20:35;21.40;1.00
573;DHT22;271;51.114;13.780;2023-05-10T06:23:24;21.70;1.00
573;DHT22;271;51.114;13.780;2023-05-10T06:26:12;21.50;1.00
573;DHT22;271;51.114;13.780;2023-05-10T06:29:00;21.60;1.00
573;DHT22;271;51.114;13.780;2023-05-10T06:31:48;22.70;1.00
573;DHT22;271;51.114;13.780;2023-05-10T06:34:36;22.80;1.00
573;DHT22;271;51.114;13.780;2023-05-10T06:37:24;22.90;1.00
573;DHT22;271;51.114;13.780;2023-05-10T06:40:13;22.50;1.00
573;DHT22;271;51.114;13.780;2023-05-10T06:43:01;22.90;1.00
573;DHT22;271;51.114;13.780;2023-05-10T06:45:49;23.90;1.00
573;DHT22;271;51.114;13.780;2023-05-10T06:48:37;24.00;1.00
573;DHT22;271;51.114;13.780;2023-05-10T06:51:25;23.70;1.00
573;DHT22;271;51.114;13.780;2023-05-10T06:54:12;23.60;1.00
573;DHT22;271;51.114;13.780;2023-05-10T06:57:01;23.50;1.00
573;DHT22;271;51.114;13.780;2023-05-10T06:59:50;22.30;1.00
573;DHT22;271;51.114;13.780;2023-05-10T07:02:37;22.70;1.00
573;DHT22;271;51.114;13.780;2023-05-10T07:05:25;22.20;1.00
573;DHT22;271;51.114;13.780;2023-05-10T07:08:14;23.00;1.00
573;DHT22;271;51.114;13.780;2023-05-10T07:11:02;22.80;1.00
573;DHT22;271;51.114;13.780;2023-05-10T07:13:52;23.30;1.00
573;DHT22;271;51.114;13.780;2023-05-10T07:16:39;24.20;1.00
573;DHT22;271;51.114;13.780;2023-05-10T07:19:27;23.60;1.00
573;DHT22;271;51.114;13.780;2023-05-10T07:22:16;23.00;1.00
573;DHT22;271;51.114;13.780;2023-05-10T07:25:04;23.30;1.00
573;DHT22;271;51.114;13.780;2023-05-10T07:27:52;22.30;1.00
573;DHT22;271;51.114;13.780;2023-05-10T07:30:41;23.70;1.00
573;DHT22;271;51.114;13.780;2023-05-10T07:33:29;23.30;1.00
573;DHT22;271;51.114;13.780;2023-05-10T07:36:17;23.60;1.00
573;DHT22;271;51.114;13.780;2023-05-10T07:39:05;22.90;1.00
573;DHT22;271;51.114;13.780;2023-05-10T07:41:53;23.20;1.00
573;DHT22;271;51.114;13.780;2023-05-10T07:44:41;23.20;1.00
573;DHT22;271;51.114;13.780;2023-05-10T07:47:31;23.90;1.00
573;DHT22;271;51.114;13.780;2023-05-10T07:50:19;24.50;1.00
573;DHT22;271;51.114;13.780;2023-05-10T07:53:07;25.40;1.00
573;DHT22;271;51.114;13.780;2023-05-10T07:55:57;26.00;1.00
573;DHT22;271;51.114;13.780;2023-05-10T07:58:45;24.20;1.00
573;DHT22;271;51.114;13.780;2023-05-10T08:01:33;24.70;1.00
573;DHT22;271;51.114;13.780;2023-05-10T08:04:23;25.40;1.00
573;DHT22;271;51.114;13.780;2023-05-10T08:07:10;24.30;1.00
573;DHT22;271;51.114;13.780;2023-05-10T08:09:58;24.50;1.00
573;DHT22;271;51.114;13.780;2023-05-10T08:12:46;24.80;1.00
573;DHT22;271;51.114;13.780;2023-05-10T08:15:34;24.90;1.00
573;DHT22;271;51.114;13.780;2023-05-10T08:18:21;24.50;1.00
573;DHT22;271;51.114;13.780;2023-05-10T08:21:10;24.20;1.00
573;DHT22;271;51.114;13.780;2023-05-10T08:23:58;24.00;1.00
573;DHT22;271;51.114;13.780;2023-05-10T08:26:46;24.70;1.00
573;DHT22;271;51.114;13.780;2023-05-10T08:29:34;24.40;1.00
573;DHT22;271;51.114;13.780;2023-05-10T08:32:22;24.00;1.00
573;DHT22;271;51.114;13.780;2023-05-10T08:35:09;23.60;1.00
573;DHT22;271;51.114;13.780;2023-05-10T08:37:59;23.70;1.00
573;DHT22;271;51.114;13.780;2023-05-10T08:40:49;23.30;1.00
573;DHT22;271;51.114;13.780;2023-05-10T08:43:37;23.10;1.00
573;DHT22;271;51.114;13.780;2023-05-10T08:46:28;22.90;1.00
573;DHT22;271;51.114;13.780;2023-05-10T08:49:20;22.60;1.00
573;DHT22;271;51.114;13.780;2023-05-10T08:52:08;23.00;1.00
573;DHT22;271;51.114;13.780;2023-05-10T08:54:59;22.80;1.00
573;DHT22;271;51.114;13.780;2023-05-10T08:57:47;22.20;1.00
573;DHT22;271;51.114;13.780;2023-05-10T09:00:34;22.80;1.00
573;DHT22;271;51.114;13.780;2023-05-10T09:03:23;23.20;1.00
573;DHT22;271;51.114;13.780;2023-05-10T09:06:12;23.30;1.00
573;DHT22;271;51.114;13.780;2023-05-10T09:09:00;23.20;1.00
573;DHT22;271;51.114;13.780;2023-05-10T09:11:51;22.90;1.00
573;DHT22;271;51.114;13.780;2023-05-10T09:14:40;22.70;1.00
573;DHT22;271;51.114;13.780;2023-05-10T09:17:28;22.40;1.00
573;DHT22;271;51.114;13.780;2023-05-10T09:20:16;22.90;1.00
573;DHT22;271;51.114;13.780;2023-05-10T09:23:04;23.00;1.00
573;DHT22;271;51.114;13.780;2023-05-10T09:26:02;22.20;1.00
573;DHT22;271;51.114;13.780;2023-05-10T09:28:54;21.50;1.00
573;DHT22;271;51.114;13.780;2023-05-10T09:31:47;21.60;1.00
573;DHT22;271;51.114;13.780;2023-05-10T09:34:37;21.70;1.00
573;DHT22;271;51.114;13.780;2023-05-10T09:37:29;22.20;1.00
573;DHT22;271;51.114;13.780;2023-05-10T09:40:18;22.60;1.00
573;DHT22;271;51.114;13.780;2023-05-10T09:43:07;22.80;1.00
573;DHT22;271;51.114;13.780;2023-05-10T09:45:56;22.40;1.00
573;DHT22;271;51.114;13.780;2023-05-10T09:48:45;22.50;1.00
573;DHT22;271;51.114;13.780;2023-05-10T09:51:34;23.00;1.00
573;DHT22;271;51.114;13.780;2023-05-10T09:54:22;23.20;1.00
573;DHT22;271;51.114;13.780;2023-05-10T09:57:19;23.30;1.00
573;DHT22;271;51.114;13.780;2023-05-10T10:00:08;23.30;1.00
573;DHT22;271;51.114;13.780;2023-05-10T10:02:59;23.40;1.00
573;DHT22;271;51.114;13.780;2023-05-10T10:05:48;23.40;1.00
573;DHT22;271;51.114;13.780;2023-05-10T10:08:37;21.90;1.00
573;DHT22;271;51.114;13.780;2023-05-10T10:11:24;21.60;1.00
573;DHT22;271;51.114;13.780;2023-05-10T10:14:12;22.40;1.00
573;DHT22;271;51.114;13.780;2023-05-10T10:17:01;22.80;1.00
573;DHT22;271;51.114;13.780;2023-05-10T10:19:50;23.30;1.00
573;DHT22;271;51.114;13.780;2023-05-10T10:22:41;23.60;1.00
573;DHT22;271;51.114;13.780;2023-05-10T10:25:30;23.00;1.00
573;DHT22;271;51.114;13.780;2023-05-10T10:28:24;23.00;1.00
573;DHT22;271;51.114;13.780;2023-05-10T10:31:21;22.70;1.00
573;DHT22;271;51.114;13.780;2023-05-10T10:34:21;23.00;1.00
573;DHT22;271;51.114;13.780;2023-05-10T10:37:13;23.60;1.00
573;DHT22;271;51.114;13.780;2023-05-10T10:40:04;23.90;1.00
573;DHT22;271;51.114;13.780;2023-05-10T10:43:24;23.20;1.00
573;DHT22;271;51.114;13.780;2023-05-10T10:46:13;23.30;1.00
573;DHT22;271;51.114;13.780;2023-05-10T10:49:12;22.90;1.00
573;DHT22;271;51.114;13.780;2023-05-10T10:52:24;23.00;1.00
573;DHT22;271;51.114;13.780;2023-05-10T10:55:15;23.00;1.00
573;DHT22;271;51.114;13.780;2023-05-10T10:58:04;23.00;1.00
573;DHT22;271;51.114;13.780;2023-05-10T11:01:10;23.20;1.00
573;DHT22;271;51.114;13.780;2023-05-10T11:04:19;23.00;1.00
573;DHT22;271;51.114;13.780;2023-05-10T11:07:26;22.90;1.00
573;DHT22;271;51.114;13.780;2023-05-10T11:10:25;22.70;1.00
573;DHT22;271;51.114;13.780;2023-05-10T11:13:13;22.20;1.00
573;DHT22;271;51.114;13.780;2023-05-10T11:16:17;22.20;1.00
573;DHT22;271;51.114;13.780;2023-05-10T11:19:07;22.00;1.00
573;DHT22;271;51.114;13.780;2023-05-10T11:22:12;21.50;1.00
573;DHT22;271;51.114;13.780;2023-05-10T11:25:06;21.30;1.00
573;DHT22;271;51.114;13.780;2023-05-10T11:27:54;21.30;1.00
573;DHT22;271;51.114;13.780;2023-05-10T11:30:44;21.50;1.00
573;DHT22;271;51.114;13.780;2023-05-10T11:33:42;21.40;1.00
573;DHT22;271;51.114;13.780;2023-05-10T11:36:33;21.50;1.00
573;DHT22;271;51.114;13.780;2023-05-10T11:39:26;21.30;1.00
573;DHT22;271;51.114;13.780;2023-05-10T11:42:15;21.40;1.00
573;DHT22;271;51.114;13.780;2023-05-10T11:45:04;21.40;1.00
573;DHT22;271;51.114;13.780;2023-05-10T11:48:06;21.50;1.00
573;DHT22;271;51.114;13.780;2023-05-10T11:50:57;21.50;1.00
573;DHT22;271;51.114;13.780;2023-05-10T11:53:45;21.50;1.00
573;DHT22;271;51.114;13.780;2023-05-10T11:56:36;21.50;1.00
573;DHT22;271;51.114;13.780;2023-05-10T11:59:25;21.30;1.00
573;DHT22;271;51.114;13.780;2023-05-10T12:02:14;21.30;1.00
573;DHT22;271;51.114;13.780;2023-05-10T12:05:02;21.30;1.00
573;DHT22;271;51.114;13.780;2023-05-10T12:07:51;21.30;1.00
573;DHT22;271;51.114;13.780;2023-05-10T12:10:39;21.30;1.00
573;DHT22;271;51.114;13.780;2023-05-10T12:13:29;21.30;1.00
573;DHT22;271;51.114;13.780;2023-05-10T12:16:20;21.30;1.00
573;DHT22;271;51.114;13.780;2023-05-10T12:19:08;21.10;1.00
573;DHT22;271;51.114;13.780;2023-05-10T12:21:56;21.10;1.00
573;DHT22;271;51.114;13.780;2023-05-10T12:24:46;21.10;1.00
573;DHT22;271;51.114;13.780;2023-05-10T12:27:34;21.10;1.00
573;DHT22;271;51.114;13.780;2023-05-10T12:30:23;21.10;1.00
573;DHT22;271;51.114;13.780;2023-05-10T12:33:13;21.10;1.00
573;DHT22;271;51.114;13.780;2023-05-10T12:36:03;21.10;1.00
573;DHT22;271;51.114;13.780;2023-05-10T12:38:50;21.10;1.00
573;DHT22;271;51.114;13.780;2023-05-10T12:41:39;21.30;1.00
573;DHT22;271;51.114;13.780;2023-05-10T12:44:26;21.30;1.00
573;DHT22;271;51.114;13.780;2023-05-10T12:47:17;21.10;1.00
573;DHT22;271;51.114;13.780;2023-05-10T12:50:09;21.20;1.00
573;DHT22;271;51.114;13.780;2023-05-10T12:52:57;21.20;1.00
573;DHT22;271;51.114;13.780;2023-05-10T12:55:45;21.00;1.00
573;DHT22;271;51.114;13.780;2023-05-10T12:58:33;20.90;1.00
573;DHT22;271;51.114;13.780;2023-05-10T13:01:22;21.20;1.00
573;DHT22;271;51.114;13.780;2023-05-10T13:04:09;21.20;1.00
573;DHT22;271;51.114;13.780;2023-05-10T13:06:58;21.20;1.00
573;DHT22;271;51.114;13.780;2023-05-10T13:09:52;21.30;1.00
573;DHT22;271;51.114;13.780;2023-05-10T13:12:40;21.40;1.00
573;DHT22;271;51.114;13.780;2023-05-10T13:15:27;21.30;1.00
573;DHT22;271;51.114;13.780;2023-05-10T13:18:15;21.10;1.00
573;DHT22;271;51.114;13.780;2023-05-10T13:21:03;21.20;1.00
573;DHT22;271;51.114;13.780;2023-05-10T13:23:53;21.10;1.00
573;DHT22;271;51.114;13.780;2023-05-10T13:26:42;21.10;1.00
573;DHT22;271;51.114;13.780;2023-05-10T13:29:29;21.00;1.00
573;DHT22;271;51.114;13.780;2023-05-10T13:32:21;21.00;1.00
573;DHT22;271;51.114;13.780;2023-05-10T13:35:09;20.90;1.00
573;DHT22;271;51.114;13.780;2023-05-10T13:37:59;21.10;1.00
573;DHT22;271;51.114;13.780;2023-05-10T13:40:48;21.10;1.00
573;DHT22;271;51.114;13.780;2023-05-10T13:43:38;21.00;1.00
573;DHT22;271;51.114;13.780;2023-05-10T13:46:26;21.00;1.00
573;DHT22;271;51.114;13.780;2023-05-10T13:49:14;21.00;1.00
573;DHT22;271;51.114;13.780;2023-05-10T13:52:02;21.10;1.00
573;DHT22;271;51.114;13.780;2023-05-10T13:54:53;21.00;1.00
573;DHT22;271;51.114;13.780;2023-05-10T13:57:43;21.10;1.00
573;DHT22;271;51.114;13.780;2023-05-10T14:00:31;21.20;1.00
573;DHT22;271;51.114;13.780;2023-05-10T14:03:18;21.30;1.00
573;DHT22;271;51.114;13.780;2023-05-10T14:06:09;21.20;1.00
573;DHT22;271;51.114;13.780;2023-05-10T14:08:57;21.00;1.00
573;DHT22;271;51.114;13.780;2023-05-10T14:11:47;21.20;1.00
573;DHT22;271;51.114;13.780;2023-05-10T14:14:37;21.40;1.00
573;DHT22;271;51.114;13.780;2023-05-10T14:17:25;21.50;1.00
573;DHT22;271;51.114;13.780;2023-05-10T14:20:13;21.40;1.00
573;DHT22;271;51.114;13.780;2023-05-10T14:23:01;21.50;1.00
573;DHT22;271;51.114;13.780;2023-05-10T14:25:49;21.50;1.00
573;DHT22;271;51.114;13.780;2023-05-10T14:28:39;21.50;1.00
573;DHT22;271;51.114;13.780;2023-05-10T14:31:28;21.30;1.00
573;DHT22;271;51.114;13.780;2023-05-10T14:34:17;21.30;1.00
573;DHT22;271;51.114;13.780;2023-05-10T14:37:05;21.20;1.00
573;DHT22;271;51.114;13.780;2023-05-10T14:39:56;21.10;1.00
573;DHT22;271;51.114;13.780;2023-05-10T14:42:43;21.10;1.00
573;DHT22;271;51.114;13.780;2023-05-10T14:45:34;21.30;1.00
573;DHT22;271;51.114;13.780;2023-05-10T14:48:24;21.10;1.00
573;DHT22;271;51.114;13.780;2023-05-10T14:51:11;21.20;1.00
573;DHT22;271;51.114;13.780;2023-05-10T14:53:59;21.30;1.00
573;DHT22;271;51.114;13.780;2023-05-10T14:56:50;21.10;1.00
573;DHT22;271;51.114;13.780;2023-05-10T14:59:38;21.30;1.00
573;DHT22;271;51.114;13.780;2023-05-10T15:02:26;21.20;1.00
573;DHT22;271;51.114;13.780;2023-05-10T15:05:15;21.30;1.00
573;DHT22;271;51.114;13.780;2023-05-10T15:08:06;21.30;1.00
573;DHT22;271;51.114;13.780;2023-05-10T15:10:55;21.30;1.00
573;DHT22;271;51.114;13.780;2023-05-10T15:13:43;21.30;1.00
573;DHT22;271;51.114;13.780;2023-05-10T15:16:31;21.30;1.00
573;DHT22;271;51.114;13.780;2023-05-10T15:19:20;21.20;1.00
573;DHT22;271;51.114;13.780;2023-05-10T15:22:09;21.00;1.00
573;DHT22;271;51.114;13.780;2023-05-10T15:24:57;20.90;1.00
573;DHT22;271;51.114;13.780;2023-05-10T15:27:45;20.80;1.00
573;DHT22;271;51.114;13.780;2023-05-10T15:30:35;20.80;1.00
573;DHT22;271;51.114;13.780;2023-05-10T15:33:23;20.70;1.00
573;DHT22;271;51.114;13.780;2023-05-10T15:36:16;20.50;1.00
573;DHT22;271;51.114;13.780;2023-05-10T15:39:05;20.40;1.00
573;DHT22;271;51.114;13.780;2023-05-10T15:41:53;20.40;1.00
573;DHT22;271;51.114;13.780;2023-05-10T15:44:41;20.30;1.00
573;DHT22;271;51.114;13.780;2023-05-10T15:47:30;20.30;1.00
573;DHT22;271;51.114;13.780;2023-05-10T15:50:19;20.20;1.00
573;DHT22;271;51.114;13.780;2023-05-10T15:53:09;20.00;1.00
573;DHT22;271;51.114;13.780;2023-05-10T15:55:59;19.90;1.00
573;DHT22;271;51.114;13.780;2023-05-10T15:58:46;19.90;1.00
573;DHT22;271;51.114;13.780;2023-05-10T16:01:34;19.90;1.00
573;DHT22;271;51.114;13.780;2023-05-10T16:04:24;19.80;1.00
573;DHT22;271;51.114;13.780;2023-05-10T16:07:12;19.80;1.00
573;DHT22;271;51.114;13.780;2023-05-10T16:10:03;19.80;1.00
573;DHT22;271;51.114;13.780;2023-05-10T16:12:53;19.80;1.00
573;DHT22;271;51.114;13.780;2023-05-10T16:15:41;19.80;1.00
573;DHT22;271;51.114;13.780;2023-05-10T16:18:29;19.80;1.00
573;DHT22;271;51.114;13.780;2023-05-10T16:21:17;19.80;1.00
573;DHT22;271;51.114;13.780;2023-05-10T16:24:05;19.90;1.00
573;DHT22;271;51.114;13.780;2023-05-10T16:26:56;19.80;1.00
573;DHT22;271;51.114;13.780;2023-05-10T16:29:46;19.70;1.00
573;DHT22;271;51.114;13.780;2023-05-10T16:32:33;19.80;1.00
573;DHT22;271;51.114;13.780;2023-05-10T16:35:21;19.70;1.00
573;DHT22;271;51.114;13.780;2023-05-10T16:38:10;19.60;1.00
573;DHT22;271;51.114;13.780;2023-05-10T16:40:58;19.60;1.00
573;DHT22;271;51.114;13.780;2023-05-10T16:43:49;19.60;1.00
573;DHT22;271;51.114;13.780;2023-05-10T16:46:38;19.50;1.00
573;DHT22;271;51.114;13.780;2023-05-10T16:49:29;19.50;1.00
573;DHT22;271;51.114;13.780;2023-05-10T16:52:17;19.40;1.00
573;DHT22;271;51.114;13.780;2023-05-10T16:55:05;19.40;1.00
573;DHT22;271;51.114;13.780;2023-05-10T16:57:53;19.40;1.00
573;DHT22;271;51.114;13.780;2023-05-10T17:00:45;19.30;1.00
573;DHT22;271;51.114;13.780;2023-05-10T17:03:34;19.20;1.00
573;DHT22;271;51.114;13.780;2023-05-10T17:06:21;19.10;1.00
573;DHT22;271;51.114;13.780;2023-05-10T17:09:09;19.10;1.00
573;DHT22;271;51.114;13.780;2023-05-10T17:12:00;19.00;1.00
573;DHT22;271;51.114;13.780;2023-05-10T17:14:49;19.00;1.00
573;DHT22;271;51.114;13.780;2023-05-10T17:17:37;19.00;1.00
573;DHT22;271;51.114;13.780;2023-05-10T17:20:26;18.90;1.00
573;DHT22;271;51.114;13.780;2023-05-10T17:23:17;18.90;1.00
573;DHT22;271;51.114;13.780;2023-05-10T17:26:05;18.80;1.00
573;DHT22;271;51.114;13.780;2023-05-10T17:28:53;18.80;1.00
573;DHT22;271;51.114;13.780;2023-05-10T17:31:41;18.70;1.00
573;DHT22;271;51.114;13.780;2023-05-10T17:34:30;18.60;1.00
573;DHT22;271;51.114;13.780;2023-05-10T17:37:21;18.60;1.00
573;DHT22;271;51.114;13.780;2023-05-10T17:40:09;18.60;1.00
573;DHT22;271;51.114;13.780;2023-05-10T17:43:01;18.50;1.00
573;DHT22;271;51.114;13.780;2023-05-10T17:45:51;18.40;1.00
573;DHT22;271;51.114;13.780;2023-05-10T17:48:39;18.50;1.00
573;DHT22;271;51.114;13.780;2023-05-10T17:51:27;18.40;1.00
573;DHT22;271;51.114;13.780;2023-05-10T17:54:16;18.30;1.00
573;DHT22;271;51.114;13.780;2023-05-10T17:57:04;18.30;1.00
573;DHT22;271;51.114;13.780;2023-05-10T17:59:52;18.20;1.00
573;DHT22;271;51.114;13.780;2023-05-10T18:02:43;18.30;1.00
573;DHT22;271;51.114;13.780;2023-05-10T18:05:30;18.20;1.00
573;DHT22;271;51.114;13.780;2023-05-10T18:08:21;18.00;1.00
573;DHT22;271;51.114;13.780;2023-05-10T18:11:13;17.90;1.00
573;DHT22;271;51.114;13.780;2023-05-10T18:14:02;18.00;1.00
573;DHT22;271;51.114;13.780;2023-05-10T18:16:50;17.90;1.00
573;DHT22;271;51.114;13.780;2023-05-10T18:19:38;17.90;1.00
573;DHT22;271;51.114;13.780;2023-05-10T18:22:26;17.80;1.00
573;DHT22;271;51.114;13.780;2023-05-10T18:25:14;17.60;1.00
573;DHT22;271;51.114;13.780;2023-05-10T18:28:03;17.60;1.00
573;DHT22;271;51.114;13.780;2023-05-10T18:30:53;17.60;1.00
573;DHT22;271;51.114;13.780;2023-05-10T18:33:41;17.60;1.00
573;DHT22;271;51.114;13.780;2023-05-10T18:36:28;17.50;1.00
573;DHT22;271;51.114;13.780;2023-05-10T18:39:16;17.50;1.00
573;DHT22;271;51.114;13.780;2023-05-10T18:42:04;17.40;1.00
573;DHT22;271;51.114;13.780;2023-05-10T18:44:54;17.30;1.00
573;DHT22;271;51.114;13.780;2023-05-10T18:47:41;17.30;1.00
573;DHT22;271;51.114;13.780;2023-05-10T18:50:29;17.20;1.00
573;DHT22;271;51.114;13.780;2023-05-10T18:53:17;17.20;1.00
573;DHT22;271;51.114;13.780;2023-05-10T18:56:05;17.20;1.00
573;DHT22;271;51.114;13.780;2023-05-10T18:58:53;17.10;1.00
573;DHT22;271;51.114;13.780;2023-05-10T19:01:42;17.00;1.00
573;DHT22;271;51.114;13.780;2023-05-10T19:04:30;16.90;1.00
573;DHT22;271;51.114;13.780;2023-05-10T19:07:18;16.80;1.00